createdAt,value
2018-07-03T00:02:18.133Z,14.70
2018-07-03T00:04:55.223Z,14.80
2018-07-03T00:07:34.317Z,14.80
2018-07-03T00:10:11.367Z,14.80
2018-07-03T00:12:51.442Z,14.90
2018-07-03T00:15:29.508Z,14.90
2018-07-03T00:18:06.427Z,15.00
2018-07-03T00:20:43.207Z,14.90
2018-07-03T00:23:21.478Z,14.90
2018-07-03T00:25:59.428Z,14.80
2018-07-03T00:28:39.757Z,14.80
2018-07-03T00:31:16.941Z,14.60
2018-07-03T00:33:52.960Z,14.50
2018-07-03T00:36:29.400Z,14.40
2018-07-03T00:39:09.305Z,14.40
2018-07-03T00:41:45.208Z,14.40
2018-07-03T00:44:22.833Z,14.50
2018-07-03T00:47:00.291Z,14.50
2018-07-03T00:49:36.843Z,14.50
2018-07-03T00:52:13.732Z,14.50
2018-07-03T00:54:50.538Z,14.60
2018-07-03T00:57:27.387Z,14.60
2018-07-03T01:00:19.951Z,14.60
2018-07-03T01:02:57.444Z,14.60
2018-07-03T01:05:34.468Z,14.60
2018-07-03T01:08:10.624Z,14.50
2018-07-03T01:10:48.298Z,14.30
2018-07-03T01:13:26.296Z,14.40
2018-07-03T01:16:03.339Z,14.30
2018-07-03T01:18:40.020Z,14.20
2018-07-03T01:21:18.016Z,14.10
2018-07-03T01:23:54.347Z,14.10
2018-07-03T01:26:31.376Z,14.00
2018-07-03T01:29:09.224Z,13.90
2018-07-03T01:31:45.954Z,13.80
2018-07-03T01:34:23.224Z,13.80
2018-07-03T01:36:59.276Z,13.70
2018-07-03T01:39:37.804Z,13.70
2018-07-03T01:42:15.517Z,13.70
2018-07-03T01:44:52.311Z,13.70
2018-07-03T01:47:29.016Z,13.70
2018-07-03T01:50:06.033Z,13.60
2018-07-03T01:52:44.743Z,13.60
2018-07-03T01:55:21.466Z,13.50
2018-07-03T01:57:58.728Z,13.60
2018-07-03T02:00:35.696Z,13.50
2018-07-03T02:03:12.384Z,13.50
2018-07-03T02:05:48.527Z,13.50
2018-07-03T02:08:24.296Z,13.50
2018-07-03T02:11:01.092Z,13.40
2018-07-03T02:13:38.740Z,13.40
2018-07-03T02:16:15.865Z,13.30
2018-07-03T02:18:53.487Z,13.30
2018-07-03T02:21:30.393Z,13.30
2018-07-03T02:24:06.937Z,13.30
2018-07-03T02:26:43.349Z,13.20
2018-07-03T02:29:19.743Z,13.20
2018-07-03T02:31:57.068Z,13.20
2018-07-03T02:34:33.544Z,13.20
2018-07-03T02:37:10.124Z,13.10
2018-07-03T02:39:49.131Z,13.00
2018-07-03T02:42:26.592Z,13.10
2018-07-03T02:45:03.592Z,13.20
2018-07-03T02:47:41.043Z,13.20
2018-07-03T02:50:18.258Z,13.10
2018-07-03T02:52:55.307Z,13.10
2018-07-03T02:55:33.590Z,13.00
2018-07-03T02:58:11.708Z,13.00
2018-07-03T03:00:49.916Z,12.90
2018-07-03T03:03:27.189Z,12.90
2018-07-03T03:06:03.735Z,12.80
2018-07-03T03:11:23.276Z,12.70
2018-07-03T03:16:39.405Z,12.60
2018-07-03T03:19:16.438Z,12.60
2018-07-03T03:21:52.923Z,12.60
2018-07-03T03:24:29.736Z,12.60
2018-07-03T03:27:06.552Z,12.60
2018-07-03T03:29:43.173Z,12.60
2018-07-03T03:32:19.512Z,12.60
2018-07-03T03:34:56.505Z,12.70
2018-07-03T03:37:35.015Z,12.70
2018-07-03T03:40:11.393Z,12.60
2018-07-03T03:45:26.648Z,12.70
2018-07-03T03:48:04.524Z,12.70
2018-07-03T03:50:41.311Z,12.70
2018-07-03T03:53:18.001Z,12.60
2018-07-03T03:55:56.386Z,12.70
2018-07-03T03:58:34.378Z,12.80
2018-07-03T04:03:49.650Z,12.70
2018-07-03T04:06:27.653Z,12.70
2018-07-03T04:09:06.549Z,12.70
2018-07-03T04:11:42.449Z,12.70
2018-07-03T04:14:18.618Z,12.70
2018-07-03T04:16:55.539Z,12.80
2018-07-03T04:19:32.530Z,12.90
2018-07-03T04:22:10.643Z,12.90
2018-07-03T04:24:47.604Z,13.00
2018-07-03T04:30:03.584Z,13.10
2018-07-03T04:32:40.844Z,13.20
2018-07-03T04:35:18.594Z,13.30
2018-07-03T04:37:55.472Z,13.40
2018-07-03T04:40:33.648Z,13.50
2018-07-03T04:43:10.305Z,13.60
2018-07-03T04:45:50.397Z,13.70
2018-07-03T04:48:28.988Z,13.80
2018-07-03T04:51:06.666Z,13.80
2018-07-03T04:53:42.729Z,13.90
2018-07-03T04:56:21.049Z,14.00
2018-07-03T04:58:57.781Z,14.20
2018-07-03T05:01:35.869Z,14.40
2018-07-03T05:04:13.388Z,14.60
2018-07-03T05:06:51.058Z,14.80
2018-07-03T05:09:28.688Z,14.90
2018-07-03T05:12:06.674Z,15.00
2018-07-03T05:14:45.109Z,15.20
2018-07-03T05:17:22.068Z,15.40
2018-07-03T05:19:59.101Z,15.50
2018-07-03T05:22:37.496Z,15.50
2018-07-03T05:25:13.984Z,16.60
2018-07-03T05:27:50.541Z,17.30
2018-07-03T05:30:27.269Z,17.70
2018-07-03T05:33:04.520Z,17.40
2018-07-03T05:35:42.720Z,17.30
2018-07-03T05:38:21.060Z,17.40
2018-07-03T05:41:00.090Z,17.30
2018-07-03T05:43:36.945Z,17.00
2018-07-03T05:46:13.792Z,16.70
2018-07-03T05:48:51.620Z,16.70
2018-07-03T05:51:27.503Z,16.60
2018-07-03T05:54:06.751Z,16.80
2018-07-03T05:56:43.408Z,17.00
2018-07-03T05:59:20.117Z,17.30
2018-07-03T06:01:57.507Z,17.50
2018-07-03T06:04:35.280Z,17.70
2018-07-03T06:07:12.614Z,17.70
2018-07-03T06:09:50.292Z,17.60
2018-07-03T06:12:26.916Z,17.50
2018-07-03T06:15:05.868Z,17.50
2018-07-03T06:17:42.260Z,17.60
2018-07-03T06:20:18.543Z,17.80
2018-07-03T06:22:55.656Z,18.00
2018-07-03T06:25:32.416Z,18.00
2018-07-03T06:28:08.417Z,17.90
2018-07-03T06:30:45.967Z,18.00
2018-07-03T06:33:22.509Z,18.10
2018-07-03T06:36:00.453Z,18.20
2018-07-03T06:38:38.088Z,18.40
2018-07-03T06:41:16.298Z,18.60
2018-07-03T06:43:54.436Z,18.70
2018-07-03T06:46:31.842Z,18.70
2018-07-03T06:49:09.461Z,18.90
2018-07-03T06:51:47.855Z,19.10
2018-07-03T06:54:25.864Z,19.30
2018-07-03T06:57:03.072Z,19.40
2018-07-03T06:59:40.410Z,19.60
2018-07-03T07:02:17.561Z,19.70
2018-07-03T07:04:54.971Z,19.80
2018-07-03T07:07:32.711Z,20.20
2018-07-03T07:10:09.676Z,20.50
2018-07-03T07:12:47.364Z,20.60
2018-07-03T07:15:23.724Z,20.50
2018-07-03T07:18:00.201Z,20.40
2018-07-03T07:20:37.085Z,20.60
2018-07-03T07:23:15.307Z,20.70
2018-07-03T07:25:52.472Z,21.00
2018-07-03T07:28:30.228Z,21.20
2018-07-03T07:31:08.581Z,21.30
2018-07-03T07:33:45.346Z,21.50
2018-07-03T07:36:21.669Z,21.50
2018-07-03T07:38:57.901Z,21.70
2018-07-03T07:41:36.080Z,21.80
2018-07-03T07:44:13.191Z,22.00
2018-07-03T07:46:50.221Z,22.10
2018-07-03T07:49:27.962Z,22.20
2018-07-03T07:52:05.054Z,22.40
2018-07-03T07:54:43.136Z,22.50
2018-07-03T07:57:21.681Z,22.70
2018-07-03T07:59:58.542Z,22.90
2018-07-03T08:02:36.403Z,23.30
2018-07-03T08:05:14.438Z,24.40
2018-07-03T08:07:51.700Z,26.30
2018-07-03T08:10:29.388Z,28.50
2018-07-03T08:13:07.626Z,30.30
2018-07-03T08:15:44.820Z,31.90
2018-07-03T08:18:22.541Z,32.40
2018-07-03T08:20:59.689Z,32.40
2018-07-03T08:23:37.844Z,32.20
2018-07-03T08:26:15.131Z,32.30
2018-07-03T08:28:51.357Z,31.90
2018-07-03T08:31:28.786Z,32.40
2018-07-03T08:34:06.494Z,33.70
2018-07-03T08:36:43.512Z,34.10
2018-07-03T08:39:20.908Z,33.90
2018-07-03T08:41:58.390Z,34.10
2018-07-03T08:44:35.692Z,34.50
2018-07-03T08:47:13.720Z,34.20
2018-07-03T08:49:51.888Z,34.30
2018-07-03T08:52:28.545Z,34.10
2018-07-03T08:55:05.907Z,34.00
2018-07-03T08:57:43.845Z,34.60
2018-07-03T09:00:20.954Z,35.30
2018-07-03T09:02:58.688Z,35.70
2018-07-03T09:05:35.916Z,34.80
2018-07-03T09:08:13.923Z,34.10
2018-07-03T09:10:52.414Z,33.60
2018-07-03T09:13:30.344Z,33.30
2018-07-03T09:16:07.525Z,32.90
2018-07-03T09:18:44.466Z,33.50
2018-07-03T09:21:21.633Z,33.90
2018-07-03T09:23:58.257Z,34.80
2018-07-03T09:26:35.199Z,34.90
2018-07-03T09:29:12.162Z,34.90
2018-07-03T09:31:49.208Z,34.00
2018-07-03T09:34:27.256Z,34.50
2018-07-03T09:37:06.705Z,35.80
2018-07-03T09:39:44.989Z,36.50
2018-07-03T09:42:22.477Z,36.20
2018-07-03T09:44:59.973Z,35.00
2018-07-03T09:47:38.244Z,33.70
2018-07-03T09:50:15.360Z,34.10
2018-07-03T09:52:52.858Z,34.40
2018-07-03T09:55:28.956Z,34.50
2018-07-03T09:58:06.632Z,34.60
2018-07-03T10:00:49.313Z,34.00
2018-07-03T10:03:28.236Z,34.30
2018-07-03T10:06:06.248Z,34.80
2018-07-03T10:08:43.836Z,34.50
2018-07-03T10:11:21.834Z,34.40
2018-07-03T10:14:00.994Z,34.30
2018-07-03T10:16:38.849Z,34.70
2018-07-03T10:19:15.670Z,35.30
2018-07-03T10:21:53.149Z,34.70
2018-07-03T10:24:30.748Z,34.40
2018-07-03T10:27:08.470Z,35.20
2018-07-03T10:29:45.548Z,35.70
2018-07-03T10:32:22.384Z,35.60
2018-07-03T10:35:00.890Z,35.60
2018-07-03T10:37:38.845Z,35.00
2018-07-03T10:40:16.105Z,34.70
2018-07-03T10:42:52.852Z,34.50
2018-07-03T10:45:31.446Z,33.80
2018-07-03T10:48:07.823Z,33.80
2018-07-03T10:50:45.043Z,34.40
2018-07-03T10:53:22.612Z,34.80
2018-07-03T10:55:59.723Z,35.00
2018-07-03T10:58:37.571Z,34.50
2018-07-03T11:01:16.083Z,34.50
2018-07-03T11:03:56.418Z,35.20
2018-07-03T11:06:33.732Z,34.80
2018-07-03T11:09:12.596Z,35.30
2018-07-03T11:11:50.455Z,36.00
2018-07-03T11:14:27.185Z,35.80
2018-07-03T11:17:03.318Z,35.20
2018-07-03T11:19:42.393Z,35.50
2018-07-03T11:22:19.721Z,35.80
2018-07-03T11:24:58.860Z,35.70
2018-07-03T11:27:36.687Z,36.00
2018-07-03T11:30:14.712Z,35.50
2018-07-03T11:32:52.274Z,36.40
2018-07-03T11:35:30.898Z,36.00
2018-07-03T11:38:09.993Z,35.70
2018-07-03T11:40:46.381Z,35.40
2018-07-03T11:43:23.369Z,36.10
2018-07-03T11:46:01.199Z,36.70
2018-07-03T11:48:39.052Z,36.20
2018-07-03T11:51:17.022Z,36.40
2018-07-03T11:53:53.616Z,35.80
2018-07-03T11:56:30.311Z,35.60
2018-07-03T11:59:09.005Z,35.40
2018-07-03T12:01:46.381Z,35.00
2018-07-03T12:04:23.756Z,35.60
2018-07-03T12:07:01.630Z,35.00
2018-07-03T12:09:40.121Z,34.50
2018-07-03T12:12:18.110Z,34.00
2018-07-03T12:14:54.457Z,34.50
2018-07-03T12:17:32.296Z,34.00
2018-07-03T12:20:10.692Z,35.30
2018-07-03T12:22:47.793Z,35.60
2018-07-03T12:25:25.500Z,35.50
2018-07-03T12:28:03.484Z,35.70
2018-07-03T12:33:18.940Z,34.60
2018-07-03T12:35:56.703Z,34.10
2018-07-03T12:38:33.654Z,32.90
2018-07-03T12:41:11.505Z,32.90
2018-07-03T12:43:47.873Z,32.80
2018-07-03T12:46:25.003Z,33.00
2018-07-03T12:49:01.986Z,34.00
2018-07-03T12:51:39.630Z,34.00
2018-07-03T12:54:16.124Z,33.60
2018-07-03T12:56:55.554Z,34.30
2018-07-03T12:59:33.968Z,34.60
2018-07-03T13:02:10.846Z,34.90
2018-07-03T13:04:51.018Z,35.40
2018-07-03T13:07:28.484Z,35.20
2018-07-03T13:10:05.626Z,34.80
2018-07-03T13:12:42.684Z,34.40
2018-07-03T13:15:20.193Z,34.30
2018-07-03T13:18:02.629Z,33.90
2018-07-03T13:23:19.068Z,34.10
2018-07-03T13:25:57.413Z,34.00
2018-07-03T13:28:34.550Z,33.80
2018-07-03T13:31:12.079Z,34.20
2018-07-03T13:33:48.846Z,34.40
2018-07-03T13:36:26.461Z,33.90
2018-07-03T13:39:06.340Z,33.80
2018-07-03T13:41:44.121Z,33.90
2018-07-03T13:44:21.680Z,33.30
2018-07-03T13:47:00.373Z,32.40
2018-07-03T13:49:36.606Z,32.70
2018-07-03T13:52:13.969Z,32.80
2018-07-03T13:54:50.667Z,33.40
2018-07-03T13:57:28.790Z,33.80
2018-07-03T14:00:07.276Z,33.20
2018-07-03T14:05:21.630Z,32.80
2018-07-03T14:07:59.589Z,33.00
2018-07-03T14:10:36.439Z,32.80
2018-07-03T14:13:13.406Z,33.00
2018-07-03T14:15:51.252Z,32.90
2018-07-03T14:18:29.108Z,33.00
2018-07-03T14:21:05.932Z,33.10
2018-07-03T14:23:42.675Z,32.90
2018-07-03T14:26:20.014Z,32.40
2018-07-03T14:28:56.726Z,31.90
2018-07-03T14:31:36.131Z,31.50
2018-07-03T14:34:13.880Z,31.40
2018-07-03T14:36:50.131Z,31.30
2018-07-03T14:39:26.227Z,31.20
2018-07-03T14:42:03.865Z,31.10
2018-07-03T14:44:41.230Z,31.40
2018-07-03T14:47:20.245Z,32.00
2018-07-03T14:49:58.094Z,31.70
2018-07-03T14:52:35.464Z,31.40
2018-07-03T14:55:12.266Z,31.10
2018-07-03T14:57:50.065Z,30.70
2018-07-03T15:00:28.301Z,30.80
2018-07-03T15:03:06.468Z,30.80
2018-07-03T15:05:43.229Z,30.60
2018-07-03T15:08:20.508Z,30.70
2018-07-03T15:10:58.310Z,30.80
2018-07-03T15:13:35.582Z,30.80
2018-07-03T15:16:11.730Z,30.60
2018-07-03T15:18:54.709Z,30.40
2018-07-03T15:21:33.096Z,30.50
2018-07-03T15:24:11.448Z,30.20
2018-07-03T15:26:48.925Z,29.90
2018-07-03T15:29:27.030Z,29.70
2018-07-03T15:32:03.929Z,29.60
2018-07-03T15:34:40.580Z,29.30
2018-07-03T15:37:19.030Z,29.10
2018-07-03T15:39:56.227Z,29.20
2018-07-03T15:42:33.280Z,29.20
2018-07-03T15:45:13.447Z,29.20
2018-07-03T15:47:49.288Z,29.40
2018-07-03T15:50:26.589Z,29.20
2018-07-03T15:53:04.692Z,29.00
2018-07-03T15:55:42.363Z,29.10
2018-07-03T15:58:19.574Z,28.90
2018-07-03T16:00:57.100Z,28.80
2018-07-03T16:04:15.525Z,28.90
2018-07-03T16:07:11.961Z,28.80
2018-07-03T16:09:48.200Z,28.50
2018-07-03T16:12:27.481Z,28.30
2018-07-03T16:15:04.194Z,28.30
2018-07-03T16:17:40.733Z,28.20
2018-07-03T16:20:25.270Z,28.00
2018-07-03T16:23:03.789Z,28.00
2018-07-03T16:25:41.292Z,27.90
2018-07-03T16:28:18.369Z,27.90
2018-07-03T16:30:54.403Z,27.80
2018-07-03T16:33:31.409Z,27.80
2018-07-03T16:36:10.131Z,27.70
2018-07-03T16:38:48.554Z,27.60
2018-07-03T16:41:26.409Z,27.60
2018-07-03T16:44:02.373Z,27.50
2018-07-03T16:46:40.583Z,27.40
2018-07-03T16:49:18.960Z,27.40
2018-07-03T16:51:55.907Z,27.30
2018-07-03T16:54:32.720Z,27.30
2018-07-03T16:57:09.680Z,27.20
2018-07-03T16:59:46.424Z,27.10
2018-07-03T17:02:25.396Z,27.00
2018-07-03T17:05:03.460Z,26.90
2018-07-03T17:07:40.469Z,26.80
2018-07-03T17:10:18.064Z,26.80
2018-07-03T17:12:56.742Z,26.70
2018-07-03T17:15:33.756Z,26.60
2018-07-03T17:18:11.804Z,26.60
2018-07-03T17:20:47.939Z,26.70
2018-07-03T17:23:25.492Z,26.70
2018-07-03T17:26:03.313Z,26.70
2018-07-03T17:28:40.574Z,26.60
2018-07-03T17:31:17.912Z,26.50
2018-07-03T17:33:56.931Z,26.40
2018-07-03T17:36:34.102Z,26.30
2018-07-03T17:39:14.527Z,26.20
2018-07-03T17:44:14.272Z,26.20
2018-07-03T17:46:51.764Z,26.10
2018-07-03T17:49:29.272Z,26.00
2018-07-03T17:52:06.720Z,25.90
2018-07-03T17:54:46.475Z,25.80
2018-07-03T17:57:25.127Z,25.60
2018-07-03T18:00:02.800Z,25.60
2018-07-03T18:02:39.213Z,25.50
2018-07-03T18:05:16.481Z,25.40
2018-07-03T18:07:53.713Z,25.30
2018-07-03T18:10:30.521Z,25.20
2018-07-03T18:13:08.416Z,25.00
2018-07-03T18:15:45.607Z,25.00
2018-07-03T18:18:21.814Z,24.90
2018-07-03T18:20:58.777Z,24.80
2018-07-03T18:23:35.957Z,24.70
2018-07-03T18:26:14.054Z,24.70
2018-07-03T18:28:50.511Z,24.60
2018-07-03T18:31:27.413Z,24.60
2018-07-03T18:34:05.256Z,24.60
2018-07-03T18:36:41.244Z,24.60
2018-07-03T18:39:17.432Z,24.50
2018-07-03T18:41:55.166Z,24.50
2018-07-03T18:44:31.424Z,24.40
2018-07-03T18:47:08.826Z,24.40
2018-07-03T18:49:47.457Z,24.30
2018-07-03T18:52:23.838Z,24.20
2018-07-03T18:55:00.996Z,24.20
2018-07-03T18:57:37.184Z,24.10
2018-07-03T19:00:13.717Z,24.10
2018-07-03T19:02:50.196Z,24.00
2018-07-03T19:05:27.716Z,23.90
2018-07-03T19:08:05.748Z,23.90
2018-07-03T19:10:42.537Z,23.70
2018-07-03T19:13:21.557Z,23.70
2018-07-03T19:15:58.293Z,23.60
2018-07-03T19:18:36.290Z,23.50
2018-07-03T19:21:15.021Z,23.40
2018-07-03T19:23:53.017Z,23.30
2018-07-03T19:26:30.947Z,23.20
2018-07-03T19:29:10.158Z,23.10
2018-07-03T19:31:50.141Z,23.00
2018-07-03T19:34:27.781Z,22.90
2018-07-03T19:37:05.164Z,22.80
2018-07-03T19:39:43.006Z,22.70
2018-07-03T19:42:20.665Z,22.60
2018-07-03T19:44:58.497Z,22.50
2018-07-03T19:47:36.215Z,22.40
2018-07-03T19:50:13.168Z,22.40
2018-07-03T19:52:50.264Z,22.30
2018-07-03T19:55:27.505Z,22.30
2018-07-03T19:58:03.987Z,22.20
2018-07-03T20:00:43.009Z,22.20
2018-07-03T20:03:22.873Z,22.10
2018-07-03T20:06:00.557Z,22.10
2018-07-03T20:08:36.996Z,22.00
2018-07-03T20:11:15.727Z,21.90
2018-07-03T20:13:54.705Z,21.80
2018-07-03T20:16:31.928Z,21.80
2018-07-03T20:19:13.145Z,21.70
2018-07-03T20:21:50.380Z,21.70
2018-07-03T20:24:28.320Z,21.60
2018-07-03T20:27:05.732Z,21.50
2018-07-03T20:29:42.669Z,21.50
2018-07-03T20:32:18.330Z,21.40
2018-07-03T20:34:54.562Z,21.40
2018-07-03T20:37:42.497Z,21.40
2018-07-03T20:40:21.078Z,21.30
2018-07-03T20:42:59.078Z,21.30
2018-07-03T20:45:36.485Z,21.20
2018-07-03T20:48:12.938Z,21.20
2018-07-03T20:50:49.761Z,21.10
2018-07-03T20:53:27.513Z,21.10
2018-07-03T20:56:06.888Z,21.00
2018-07-03T20:58:44.679Z,21.10
2018-07-03T21:01:22.098Z,20.90
2018-07-03T21:03:58.974Z,20.90
2018-07-03T21:06:35.756Z,20.90
2018-07-03T21:09:12.050Z,20.80
2018-07-03T21:11:49.618Z,20.90
2018-07-03T21:14:27.581Z,20.80
2018-07-03T21:17:05.420Z,20.70
2018-07-03T21:19:42.546Z,20.70
2018-07-03T21:22:20.184Z,20.60
2018-07-03T21:24:58.032Z,20.50
2018-07-03T21:27:35.837Z,20.40
2018-07-03T21:30:12.895Z,20.30
2018-07-03T21:32:51.163Z,20.30
2018-07-03T21:35:28.924Z,20.20
2018-07-03T21:38:08.281Z,20.20
2018-07-03T21:40:44.444Z,20.20
2018-07-03T21:43:21.921Z,20.00
2018-07-03T21:45:58.766Z,19.90
2018-07-03T21:48:35.603Z,19.80
2018-07-03T21:51:12.648Z,19.70
2018-07-03T21:53:50.426Z,19.60
2018-07-03T21:56:27.723Z,19.40
2018-07-03T21:59:04.442Z,19.40
2018-07-03T22:01:41.585Z,19.30
2018-07-03T22:04:19.744Z,19.30
2018-07-03T22:06:56.049Z,19.20
2018-07-03T22:09:32.973Z,19.10
2018-07-03T22:12:10.857Z,19.10
2018-07-03T22:14:46.304Z,19.00
2018-07-03T22:17:22.725Z,19.00
2018-07-03T22:19:59.784Z,18.90
2018-07-03T22:22:37.268Z,18.90
2018-07-03T22:25:14.223Z,18.80
2018-07-03T22:27:51.666Z,18.80
2018-07-03T22:30:27.240Z,18.80
2018-07-03T22:33:03.696Z,18.70
2018-07-03T22:35:41.429Z,18.70
2018-07-03T22:38:17.620Z,18.60
2018-07-03T22:40:54.696Z,18.50
2018-07-03T22:43:32.451Z,18.50
2018-07-03T22:46:09.542Z,18.60
2018-07-03T22:48:47.617Z,18.50
2018-07-03T22:51:24.610Z,18.50
2018-07-03T22:54:01.931Z,18.40
2018-07-03T22:56:39.631Z,18.30
2018-07-03T22:59:15.856Z,18.30
2018-07-03T23:01:51.960Z,18.20
2018-07-03T23:04:30.050Z,18.20
2018-07-03T23:07:07.164Z,18.30
2018-07-03T23:09:44.571Z,18.30
2018-07-03T23:12:20.709Z,18.30
2018-07-03T23:14:56.655Z,18.40
2018-07-03T23:17:34.475Z,18.40
2018-07-03T23:20:10.924Z,18.30
2018-07-03T23:22:47.754Z,18.30
2018-07-03T23:25:24.217Z,18.20
2018-07-03T23:28:01.560Z,18.20
2018-07-03T23:30:37.820Z,18.10
2018-07-03T23:33:14.223Z,18.00
2018-07-03T23:35:51.845Z,18.00
2018-07-03T23:38:28.697Z,17.90
2018-07-03T23:41:06.805Z,17.90
2018-07-03T23:43:45.205Z,17.90
2018-07-03T23:46:38.026Z,17.80
2018-07-03T23:49:32.248Z,17.80
2018-07-03T23:52:24.952Z,17.70
2018-07-03T23:55:19.336Z,17.60
2018-07-03T23:58:13.974Z,17.50
